Time;durP1;ratioP1;P1;durP2;ratioP2;P2;SDS_P1;SDS_P2;PMS_P1;PMS_P2;Temp;Humidity;BMP_temperature;BMP_pressure;BME280_temperature;BME280_humidity;BME280_pressure;Samples;Min_cycle;Max_cycle;Signal;HPM_P1;HPM_P2
2023/06/30 00:02:55;;;;;;;8.07;5.97;;;17.40;51.70;;;;;;8268793;28;20215;-68
2023/06/30 00:06:57;;;;;;;5.93;5.30;;;17.50;49.00;;;;;;8267474;28;20218;-68
2023/06/30 00:11:01;;;;;;;7.53;6.30;;;17.50;76.30;;;;;;8269114;28;20199;-68
2023/06/30 00:15:03;;;;;;;7.10;6.00;;;17.40;99.90;;;;;;8270439;28;20188;-68
2023/06/30 00:19:04;;;;;;;7.93;6.60;;;17.40;99.90;;;;;;8265327;28;20187;-68
2023/06/30 00:23:08;;;;;;;8.27;6.60;;;17.40;91.20;;;;;;8274123;28;20195;-69
2023/06/30 00:27:09;;;;;;;7.17;6.47;;;17.40;85.30;;;;;;8267957;28;20222;-67
2023/06/30 00:31:11;;;;;;;8.53;6.23;;;17.40;72.70;;;;;;8263733;28;20180;-68
2023/06/30 00:35:12;;;;;;;6.57;5.87;;;17.40;54.40;;;;;;8264142;28;20251;-68
2023/06/30 00:39:13;;;;;;;6.17;5.47;;;17.50;81.40;;;;;;8268025;28;20325;-67
2023/06/30 00:43:14;;;;;;;6.37;5.77;;;17.40;90.70;;;;;;8272477;28;20210;-68
2023/06/30 00:47:15;;;;;;;6.17;5.47;;;17.40;99.90;;;;;;8277386;28;20274;-69
2023/06/30 00:51:16;;;;;;;5.87;5.30;;;17.40;99.90;;;;;;8268653;28;20222;-69
2023/06/30 00:55:20;;;;;;;6.00;4.80;;;17.40;99.90;;;;;;8272463;28;20179;-68
2023/06/30 00:59:24;;;;;;;6.50;5.40;;;17.40;99.90;;;;;;8270888;28;20199;-69
2023/06/30 01:03:40;;;;;;;8.67;5.73;;;17.40;99.90;;;;;;8285200;28;20199;-69
2023/06/30 01:07:49;;;;;;;7.07;5.33;;;17.40;99.90;;;;;;8271654;28;20338;-69
2023/06/30 01:11:51;;;;;;;6.40;5.27;;;17.40;99.90;;;;;;8276308;28;20199;-68
2023/06/30 01:15:53;;;;;;;5.17;4.67;;;17.40;99.90;;;;;;8273545;28;20203;-68
2023/06/30 01:19:58;;;;;;;6.13;5.60;;;17.40;99.90;;;;;;8274868;28;20195;-69
2023/06/30 01:24:05;;;;;;;7.50;5.13;;;17.40;99.90;;;;;;8273817;28;20191;-68
2023/06/30 01:28:07;;;;;;;7.13;4.97;;;17.40;99.90;;;;;;8266694;28;20230;-69
2023/06/30 01:32:09;;;;;;;5.27;4.67;;;17.40;99.90;;;;;;8272824;28;20275;-69
2023/06/30 01:36:11;;;;;;;6.07;4.80;;;17.40;99.90;;;;;;8272636;28;20198;-68
2023/06/30 01:40:15;;;;;;;5.80;5.00;;;17.40;99.90;;;;;;8266826;28;20196;-67
2023/06/30 01:44:16;;;;;;;5.70;4.73;;;17.30;99.90;;;;;;8272693;28;20283;-70
2023/06/30 01:48:19;;;;;;;7.53;5.00;;;17.30;99.90;;;;;;8275418;28;20294;-69
2023/06/30 01:52:20;;;;;;;5.40;4.80;;;17.30;99.90;;;;;;8273233;28;20199;-67
2023/06/30 01:56:21;;;;;;;7.70;5.00;;;17.30;99.90;;;;;;8270485;28;20190;-68
2023/06/30 02:00:22;;;;;;;5.70;4.40;;;17.30;99.90;;;;;;8268808;28;20198;-69
2023/06/30 02:04:23;;;;;;;5.57;5.07;;;17.30;99.90;;;;;;8269114;28;20207;-67
2023/06/30 02:08:24;;;;;;;5.87;4.93;;;17.30;99.90;;;;;;8272342;28;20195;-69
2023/06/30 02:12:25;;;;;;;6.20;5.00;;;17.20;99.90;;;;;;8282639;28;20183;-68
2023/06/30 02:16:26;;;;;;;5.50;5.00;;;17.20;99.90;;;;;;8269581;28;20198;-69
2023/06/30 02:20:26;;;;;;;5.43;4.93;;;17.10;99.90;;;;;;8268715;28;20195;-69
2023/06/30 02:24:27;;;;;;;6.07;5.47;;;17.10;99.90;;;;;;8268997;28;20202;-69
2023/06/30 02:28:34;;;;;;;5.40;4.90;;;17.10;99.90;;;;;;8270539;28;20241;-68
2023/06/30 02:32:38;;;;;;;5.10;4.60;;;17.10;99.90;;;;;;8268632;28;20187;-69
2023/06/30 02:36:39;;;;;;;5.50;5.00;;;17.00;99.90;;;;;;8284491;28;20204;-67
2023/06/30 02:40:40;;;;;;;6.47;5.40;;;17.00;99.90;;;;;;8269152;28;20184;-68
2023/06/30 02:44:40;;;;;;;6.20;5.60;;;17.00;99.90;;;;;;8272455;28;20211;-67
2023/06/30 02:48:41;;;;;;;9.13;5.87;;;16.90;1.00;;;;;;8268204;28;20215;-68
2023/06/30 02:52:44;;;;;;;7.70;6.60;;;16.90;1.00;;;;;;8269923;28;20183;-68
2023/06/30 02:56:44;;;;;;;6.80;6.10;;;16.80;1.00;;;;;;8272473;28;20205;-68
2023/06/30 03:00:45;;;;;;;7.13;6.13;;;16.70;1.00;;;;;;8266563;28;20191;-66
2023/06/30 03:04:46;;;;;;;14.63;10.73;;;16.70;1.00;;;;;;8267318;28;20293;-68
2023/06/30 03:08:47;;;;;;;15.77;11.70;;;16.70;1.00;;;;;;8266364;28;20187;-68
2023/06/30 03:12:48;;;;;;;10.13;8.87;;;16.80;1.00;;;;;;8264006;28;20180;-68
2023/06/30 03:16:49;;;;;;;8.43;7.63;;;16.80;1.00;;;;;;8263794;28;20190;-69
2023/06/30 03:20:50;;;;;;;6.53;5.70;;;16.80;1.00;;;;;;8267804;28;20191;-68
2023/06/30 03:24:50;;;;;;;7.50;5.13;;;16.80;1.00;;;;;;8266403;28;20215;-67
2023/06/30 03:28:51;;;;;;;5.47;4.97;;;16.80;8.30;;;;;;8265398;28;20199;-68
2023/06/30 03:32:52;;;;;;;6.47;5.47;;;16.80;1.00;;;;;;8267332;28;20196;-68
2023/06/30 03:36:53;;;;;;;7.13;5.43;;;16.90;1.00;;;;;;8266617;28;20191;-67
2023/06/30 03:40:54;;;;;;;6.00;5.40;;;16.90;1.00;;;;;;8266924;28;20183;-68
2023/06/30 03:44:55;;;;;;;6.57;5.87;;;16.80;1.00;;;;;;8263868;28;20228;-68
2023/06/30 03:48:56;;;;;;;5.27;4.77;;;16.90;1.00;;;;;;8266132;28;20188;-68
2023/06/30 03:53:00;;;;;;;7.00;6.40;;;16.90;1.00;;;;;;8265867;28;20187;-68
2023/06/30 03:57:01;;;;;;;7.30;6.50;;;17.00;1.00;;;;;;8267027;28;20187;-68
2023/06/30 04:01:05;;;;;;;6.90;6.03;;;17.00;1.00;;;;;;8267387;28;20274;-68
2023/06/30 04:05:06;;;;;;;6.90;6.23;;;17.10;1.00;;;;;;8265511;28;20211;-68
2023/06/30 04:09:07;;;;;;;7.23;6.40;;;17.30;1.00;;;;;;8263704;28;20218;-68
2023/06/30 04:13:08;;;;;;;8.27;6.27;;;17.40;1.00;;;;;;8265078;28;20184;-68
2023/06/30 04:21:32;;;;;;;7.17;6.30;;;17.70;1.00;;;;;;8269565;28;20195;-69
2023/06/30 04:25:33;;;;;;;6.13;5.53;;;17.80;1.00;;;;;;8275073;28;20324;-68
2023/06/30 04:29:34;;;;;;;6.03;5.47;;;17.80;1.00;;;;;;8272674;28;20187;-69
2023/06/30 04:33:35;;;;;;;6.23;5.63;;;17.90;99.90;;;;;;8273191;28;20187;-68
2023/06/30 04:37:40;;;;;;;13.43;9.93;;;18.00;99.90;;;;;;8272750;28;20197;-69
2023/06/30 04:41:41;;;;;;;12.13;9.30;;;18.10;99.90;;;;;;8270667;28;20191;-68
2023/06/30 04:45:42;;;;;;;22.57;13.80;;;18.10;99.90;;;;;;8274305;28;20235;-67
2023/06/30 04:49:46;;;;;;;16.17;11.37;;;18.20;99.90;;;;;;8280657;28;20328;-66
2023/06/30 04:53:47;;;;;;;12.40;9.27;;;18.20;99.90;;;;;;8266954;28;20176;-67
2023/06/30 04:57:48;;;;;;;11.90;8.43;;;18.30;99.90;;;;;;8270581;28;20175;-66
2023/06/30 05:01:49;;;;;;;8.53;7.63;;;18.40;99.90;;;;;;8267964;28;20191;-67
2023/06/30 05:05:50;;;;;;;8.23;6.67;;;18.50;99.90;;;;;;8273089;28;20203;-68
2023/06/30 05:09:51;;;;;;;7.20;6.37;;;18.60;99.90;;;;;;8288331;28;20183;-69
2023/06/30 05:13:53;;;;;;;6.07;5.47;;;18.80;99.90;;;;;;8269868;28;20184;-65
2023/06/30 05:17:54;;;;;;;6.60;5.80;;;19.00;99.90;;;;;;8270605;28;20191;-68
2023/06/30 05:21:55;;;;;;;7.97;6.10;;;19.10;99.90;;;;;;8274583;28;20192;-68
2023/06/30 05:25:58;;;;;;;4.77;4.27;;;19.30;99.90;;;;;;8271268;28;20218;-67
2023/06/30 05:30:02;;;;;;;8.77;7.00;;;19.40;99.90;;;;;;8268162;28;20194;-67
2023/06/30 05:34:03;;;;;;;8.77;7.87;;;19.50;99.90;;;;;;8264953;28;20188;-68
2023/06/30 05:38:04;;;;;;;13.23;8.50;;;19.50;99.90;;;;;;8270067;28;20388;-67
2023/06/30 05:42:05;;;;;;;13.93;8.27;;;19.60;99.90;;;;;;8271164;28;20211;-68
2023/06/30 05:46:06;;;;;;;18.40;9.87;;;19.70;99.90;;;;;;8265967;28;20204;-66
2023/06/30 05:50:08;;;;;;;12.73;8.80;;;19.70;99.90;;;;;;8267247;28;20183;-66
2023/06/30 05:54:10;;;;;;;10.67;7.67;;;19.80;99.90;;;;;;8272903;28;20187;-67
2023/06/30 05:58:11;;;;;;;13.17;6.07;;;19.80;99.90;;;;;;8269695;28;20188;-68
2023/06/30 06:02:11;;;;;;;8.77;6.30;;;19.80;91.50;;;;;;8268144;28;20285;-68
2023/06/30 06:06:12;;;;;;;7.50;6.10;;;19.90;87.50;;;;;;8265969;28;20226;-67
2023/06/30 06:10:13;;;;;;;12.60;6.83;;;20.10;55.30;;;;;;8264831;28;20199;-67
2023/06/30 06:14:15;;;;;;;8.07;6.37;;;20.20;28.70;;;;;;8267290;28;20179;-66
2023/06/30 06:18:16;;;;;;;7.30;5.50;;;20.50;8.90;;;;;;8264448;28;20188;-66
2023/06/30 06:22:17;;;;;;;8.17;6.27;;;20.80;1.00;;;;;;8272600;28;20229;-68
2023/06/30 06:26:19;;;;;;;6.50;5.70;;;21.20;1.00;;;;;;8270561;28;20274;-68
2023/06/30 06:30:19;;;;;;;11.90;6.60;;;21.50;1.00;;;;;;8273983;28;20187;-67
2023/06/30 06:34:22;;;;;;;6.43;5.83;;;21.50;1.00;;;;;;8268213;28;20203;-67
2023/06/30 06:38:22;;;;;;;8.83;5.00;;;21.50;1.00;;;;;;8267490;28;20265;-67
2023/06/30 06:42:23;;;;;;;5.67;5.10;;;21.40;1.00;;;;;;8263238;28;20206;-68
2023/06/30 06:46:24;;;;;;;11.50;6.23;;;21.50;1.00;;;;;;8274035;28;20212;-68
2023/06/30 06:50:28;;;;;;;7.63;5.43;;;21.50;1.00;;;;;;8273748;28;20183;-69
2023/06/30 06:54:29;;;;;;;7.33;4.40;;;21.40;1.00;;;;;;8281522;28;20226;-70
2023/06/30 06:58:38;;;;;;;7.37;4.87;;;21.30;1.00;;;;;;8263249;28;20187;-68
2023/06/30 07:02:39;;;;;;;11.20;5.07;;;21.40;1.00;;;;;;8267088;28;20191;-67
2023/06/30 07:06:40;;;;;;;5.90;5.00;;;21.70;1.00;;;;;;8268527;28;20204;-68
2023/06/30 07:10:42;;;;;;;6.20;4.73;;;22.00;1.00;;;;;;8270729;28;20191;-67
2023/06/30 07:14:43;;;;;;;6.73;4.20;;;22.30;1.00;;;;;;8263913;28;20415;-68
2023/06/30 07:18:44;;;;;;;5.00;4.50;;;22.60;1.00;;;;;;8262488;28;20180;-68
2023/06/30 07:22:45;;;;;;;4.10;3.70;;;22.90;1.00;;;;;;8272020;28;20265;-68
2023/06/30 07:26:47;;;;;;;5.60;4.73;;;23.20;1.00;;;;;;8262010;28;20208;-68
2023/06/30 07:30:50;;;;;;;5.50;4.10;;;23.40;1.00;;;;;;8264947;28;20179;-68
2023/06/30 07:34:52;;;;;;;4.50;4.10;;;23.60;1.00;;;;;;8265176;28;20195;-67
2023/06/30 07:38:52;;;;;;;5.23;4.07;;;24.00;1.00;;;;;;8266180;28;20186;-68
2023/06/30 07:42:53;;;;;;;4.43;3.67;;;24.40;1.00;;;;;;8266006;28;20234;-69
2023/06/30 07:46:55;;;;;;;4.17;3.13;;;24.60;1.00;;;;;;8265706;28;20214;-68
2023/06/30 07:50:56;;;;;;;4.60;3.10;;;24.70;99.90;;;;;;8268737;28;20207;-68
2023/06/30 07:54:57;;;;;;;5.43;2.70;;;24.70;99.90;;;;;;8268549;28;20194;-67
2023/06/30 07:59:01;;;;;;;4.37;3.40;;;24.50;99.90;;;;;;8274044;28;20346;-68
2023/06/30 08:03:02;;;;;;;4.07;2.70;;;24.50;99.90;;;;;;8271879;28;20207;-67
2023/06/30 08:07:04;;;;;;;3.57;2.67;;;24.30;99.90;;;;;;8270737;28;20242;-67
2023/06/30 08:11:04;;;;;;;3.50;2.40;;;24.60;99.90;;;;;;8272256;28;20191;-67
2023/06/30 08:15:06;;;;;;;3.47;2.73;;;25.10;99.90;;;;;;8271132;28;20190;-67
2023/06/30 08:19:07;;;;;;;2.60;2.20;;;25.30;99.90;;;;;;8271377;28;20283;-67
2023/06/30 08:23:10;;;;;;;4.82;2.90;;;25.50;99.90;;;;;;8272840;28;20199;-67
2023/06/30 08:27:11;;;;;;;3.95;2.20;;;25.80;99.90;;;;;;8271765;28;20228;-67
2023/06/30 08:31:12;;;;;;;2.90;1.95;;;26.10;99.90;;;;;;8270021;28;20180;-68
2023/06/30 08:35:13;;;;;;;4.78;1.80;;;26.60;99.90;;;;;;8271197;28;20294;-67
2023/06/30 08:39:14;;;;;;;2.55;1.88;;;27.00;99.90;;;;;;8271372;28;20298;-69
2023/06/30 08:43:17;;;;;;;3.88;1.88;;;27.30;99.90;;;;;;8268888;28;20204;-67
2023/06/30 08:47:20;;;;;;;2.58;2.03;;;27.40;99.90;;;;;;8271974;28;20502;-68
2023/06/30 08:51:22;;;;;;;2.42;2.05;;;27.50;99.90;;;;;;8269053;28;20179;-67
2023/06/30 08:55:23;;;;;;;3.65;1.80;;;27.40;99.90;;;;;;8272054;28;20191;-67
2023/06/30 08:59:26;;;;;;;2.58;1.85;;;27.20;99.90;;;;;;8277084;28;20190;-67
2023/06/30 09:03:27;;;;;;;3.83;2.00;;;26.90;99.90;;;;;;8266192;28;20211;-68
2023/06/30 09:07:31;;;;;;;4.78;2.03;;;26.40;99.90;;;;;;8272489;28;20212;-66
2023/06/30 09:11:34;;;;;;;5.20;2.08;;;26.10;99.90;;;;;;8275428;28;20280;-69
2023/06/30 09:15:35;;;;;;;3.28;1.60;;;26.00;99.90;;;;;;8275554;28;20195;-68
2023/06/30 09:19:39;;;;;;;4.47;1.90;;;26.00;99.90;;;;;;8267504;28;20216;-68
2023/06/30 09:23:41;;;;;;;4.80;2.70;;;26.10;99.90;;;;;;8273523;28;20195;-68
2023/06/30 09:27:42;;;;;;;5.03;2.10;;;26.00;99.90;;;;;;8269319;28;20215;-67
2023/06/30 09:31:43;;;;;;;4.70;2.25;;;25.80;99.90;;;;;;8282232;28;20176;-68
2023/06/30 09:35:46;;;;;;;3.20;2.20;;;25.80;99.90;;;;;;8267899;28;20184;-68
2023/06/30 09:39:51;;;;;;;4.05;2.05;;;25.90;99.90;;;;;;8267666;28;20188;-68
2023/06/30 09:44:01;;;;;;;3.25;2.40;;;26.00;99.90;;;;;;8269043;28;20371;-68
2023/06/30 09:48:02;;;;;;;4.10;2.28;;;26.40;99.90;;;;;;8267330;28;20296;-69
2023/06/30 09:52:05;;;;;;;4.72;2.10;;;26.40;99.90;;;;;;8269028;28;20203;-69
2023/06/30 09:56:08;;;;;;;3.72;2.08;;;26.20;99.90;;;;;;8267029;28;20187;-67
2023/06/30 10:00:16;;;;;;;3.35;1.92;;;26.10;99.90;;;;;;8273818;28;20179;-68
2023/06/30 10:04:17;;;;;;;3.15;1.80;;;26.20;99.90;;;;;;8266630;28;20210;-67
2023/06/30 10:08:24;;;;;;;2.58;1.90;;;26.30;99.90;;;;;;8264223;28;20246;-67
2023/06/30 10:12:27;;;;;;;3.78;2.03;;;26.90;99.90;;;;;;8270013;28;20180;-67
2023/06/30 10:16:29;;;;;;;7.60;2.40;;;27.30;99.90;;;;;;8264589;28;20188;-68
2023/06/30 10:20:30;;;;;;;2.85;1.80;;;27.60;99.90;;;;;;8267432;28;20183;-69
2023/06/30 10:24:42;;;;;;;4.03;2.85;;;27.50;99.90;;;;;;8267720;28;20183;-67
2023/06/30 10:28:43;;;;;;;3.63;1.90;;;27.10;99.90;;;;;;8281799;28;20220;-68
2023/06/30 10:32:44;;;;;;;2.67;1.92;;;26.80;99.90;;;;;;8271420;28;20186;-67
2023/06/30 10:36:46;;;;;;;6.63;2.50;;;26.60;99.90;;;;;;8265510;28;20250;-67
2023/06/30 10:40:47;;;;;;;4.72;2.60;;;26.20;99.90;;;;;;8267451;28;20207;-68
2023/06/30 10:44:48;;;;;;;4.82;2.80;;;25.80;99.90;;;;;;8270449;28;20205;-69
2023/06/30 10:48:56;;;;;;;3.42;2.72;;;25.40;99.90;;;;;;8270180;28;20191;-68
2023/06/30 10:52:57;;;;;;;5.83;3.10;;;25.00;99.90;;;;;;8267609;28;20286;-69
2023/06/30 10:57:25;;;;;;;4.53;3.10;;;24.70;99.90;;;;;;8270414;28;20187;-67
2023/06/30 11:01:27;;;;;;;4.13;2.80;;;24.50;99.90;;;;;;8268611;28;20196;-67
2023/06/30 11:05:33;;;;;;;2.80;2.50;;;24.20;99.90;;;;;;8268919;28;20203;-67
2023/06/30 11:09:49;;;;;;;3.30;2.70;;;24.00;99.90;;;;;;8265748;28;20191;-67
2023/06/30 11:14:06;;;;;;;4.37;2.50;;;24.00;99.90;;;;;;8278639;28;20180;-66
2023/06/30 11:18:10;;;;;;;7.83;2.93;;;24.10;99.90;;;;;;8268188;28;20195;-68
2023/06/30 11:22:31;;;;;;;3.60;3.10;;;23.90;99.90;;;;;;8268123;28;20207;-66
2023/06/30 11:26:36;;;;;;;6.13;3.20;;;23.80;99.90;;;;;;8266451;28;20214;-66
2023/06/30 11:30:38;;;;;;;5.07;3.07;;;23.60;99.90;;;;;;8270564;28;20183;-67
2023/06/30 11:34:41;;;;;;;4.53;3.20;;;23.40;99.90;;;;;;8268022;28;20176;-67
2023/06/30 11:38:49;;;;;;;4.60;3.50;;;23.10;99.90;;;;;;8281188;28;20191;-68
2023/06/30 11:42:52;;;;;;;5.03;4.13;;;22.90;1.00;;;;;;8270244;28;20200;-67
2023/06/30 11:46:55;;;;;;;4.90;4.50;;;22.80;1.00;;;;;;8268261;28;20238;-67
2023/06/30 11:50:56;;;;;;;5.93;4.57;;;22.70;1.00;;;;;;8264271;28;20215;-67
2023/06/30 11:54:57;;;;;;;4.97;4.50;;;22.60;1.00;;;;;;8265141;28;20175;-67
2023/06/30 11:58:58;;;;;;;5.03;4.53;;;22.90;1.00;;;;;;8266380;28;20193;-68
2023/06/30 12:02:59;;;;;;;6.53;4.87;;;23.20;1.00;;;;;;8265034;28;20239;-67
2023/06/30 12:07:04;;;;;;;5.17;4.63;;;23.40;1.00;;;;;;8264621;28;20219;-67
2023/06/30 12:11:08;;;;;;;5.50;4.93;;;23.60;1.00;;;;;;8267570;28;20183;-68
2023/06/30 12:15:13;;;;;;;5.73;4.57;;;23.70;1.00;;;;;;8264153;28;20194;-67
2023/06/30 12:19:15;;;;;;;5.33;4.80;;;23.90;1.00;;;;;;8280531;28;20190;-68
2023/06/30 12:23:27;;;;;;;5.40;4.90;;;24.20;1.00;;;;;;8267616;28;20187;-69
2023/06/30 12:27:28;;;;;;;5.43;4.77;;;24.20;1.00;;;;;;8265573;28;20207;-68
2023/06/30 12:31:31;;;;;;;6.57;4.70;;;24.40;1.00;;;;;;8263125;28;20270;-66
2023/06/30 12:35:37;;;;;;;6.23;4.40;;;24.60;1.00;;;;;;8267416;28;20257;-67
2023/06/30 12:39:38;;;;;;;4.50;3.83;;;24.80;1.00;;;;;;8268761;28;20194;-67
2023/06/30 12:43:39;;;;;;;4.77;4.27;;;24.60;99.90;;;;;;8271191;28;20205;-67
2023/06/30 12:47:40;;;;;;;4.13;3.73;;;24.50;99.90;;;;;;8270984;28;20207;-68
2023/06/30 12:51:43;;;;;;;4.67;2.70;;;24.50;1.00;;;;;;8273881;28;20175;-67
2023/06/30 12:55:43;;;;;;;3.43;2.70;;;24.40;99.90;;;;;;8275021;28;20275;-67
2023/06/30 12:59:44;;;;;;;4.60;2.50;;;24.80;99.90;;;;;;8268077;28;20194;-67
2023/06/30 13:03:46;;;;;;;3.07;2.50;;;25.30;99.90;;;;;;8269851;28;20215;-69
2023/06/30 13:07:50;;;;;;;2.93;2.37;;;25.70;99.90;;;;;;8271347;28;20215;-68
2023/06/30 13:11:51;;;;;;;2.75;2.47;;;26.10;99.90;;;;;;8271252;28;20194;-68
2023/06/30 13:15:52;;;;;;;2.85;2.58;;;26.30;99.90;;;;;;8276672;28;20206;-68
2023/06/30 13:19:54;;;;;;;2.63;2.33;;;26.40;99.90;;;;;;8276650;28;20207;-68
2023/06/30 13:23:55;;;;;;;3.10;2.78;;;26.50;99.90;;;;;;8276879;28;20195;-68
2023/06/30 13:27:56;;;;;;;4.70;2.83;;;26.60;99.90;;;;;;8268296;28;20214;-68
2023/06/30 13:31:57;;;;;;;2.80;2.60;;;26.50;99.90;;;;;;8271224;28;20190;-67
2023/06/30 13:36:02;;;;;;;3.35;3.05;;;26.20;99.90;;;;;;8268735;28;20192;-67
2023/06/30 13:40:04;;;;;;;4.95;2.97;;;25.90;99.90;;;;;;8275321;28;20196;-68
2023/06/30 13:44:05;;;;;;;3.88;2.67;;;25.70;99.90;;;;;;8274372;28;20212;-67
2023/06/30 13:48:06;;;;;;;3.17;2.75;;;25.60;99.90;;;;;;8266130;28;20214;-68
2023/06/30 13:52:08;;;;;;;3.80;3.05;;;25.70;99.90;;;;;;8266089;28;20183;-67
2023/06/30 13:56:08;;;;;;;3.90;2.83;;;25.90;99.90;;;;;;8271701;28;20194;-68
2023/06/30 14:00:10;;;;;;;3.42;2.35;;;26.10;99.90;;;;;;8271529;28;20187;-68
2023/06/30 14:04:12;;;;;;;4.18;3.00;;;26.10;99.90;;;;;;8269657;28;20305;-68
2023/06/30 14:08:13;;;;;;;2.80;2.35;;;26.00;99.90;;;;;;8266478;28;20234;-68
2023/06/30 14:12:14;;;;;;;3.58;2.88;;;25.80;99.90;;;;;;8271357;28;20175;-68
2023/06/30 14:16:15;;;;;;;4.82;4.00;;;25.40;99.90;;;;;;8266188;28;20191;-67
2023/06/30 14:20:16;;;;;;;4.57;4.10;;;25.20;99.90;;;;;;8271889;28;20187;-68
2023/06/30 14:24:17;;;;;;;3.95;3.30;;;25.00;99.90;;;;;;8264782;28;20183;-67
2023/06/30 14:28:18;;;;;;;5.30;4.25;;;25.00;99.90;;;;;;8266751;28;20203;-69
2023/06/30 14:32:20;;;;;;;5.60;3.70;;;25.00;99.90;;;;;;8266256;28;20187;-67
2023/06/30 14:36:21;;;;;;;7.15;3.63;;;24.90;99.90;;;;;;8273824;28;20187;-67
2023/06/30 14:40:24;;;;;;;3.20;2.90;;;25.10;99.90;;;;;;8267982;28;20885;-67
2023/06/30 14:44:28;;;;;;;3.55;3.20;;;25.30;99.90;;;;;;8269415;28;20199;-68
2023/06/30 14:48:29;;;;;;;4.57;3.35;;;25.50;99.90;;;;;;8273505;28;20223;-68
2023/06/30 14:52:30;;;;;;;5.32;3.60;;;25.50;99.90;;;;;;8266242;28;20212;-67
2023/06/30 14:56:34;;;;;;;3.83;3.00;;;25.40;99.90;;;;;;8266024;28;20230;-67
2023/06/30 15:00:35;;;;;;;3.20;2.88;;;25.50;99.90;;;;;;8268467;28;20192;-68
2023/06/30 15:04:36;;;;;;;3.65;2.85;;;25.70;99.90;;;;;;8268784;28;20210;-67
2023/06/30 15:08:39;;;;;;;3.83;2.67;;;25.90;99.90;;;;;;8267186;28;20206;-67
2023/06/30 15:12:40;;;;;;;2.85;2.53;;;26.00;99.90;;;;;;8266338;28;20176;-68
2023/06/30 15:16:41;;;;;;;4.45;2.80;;;26.10;99.90;;;;;;8265944;28;20197;-67
2023/06/30 15:20:43;;;;;;;3.47;3.05;;;26.20;99.90;;;;;;8266322;28;20184;-67
2023/06/30 15:24:44;;;;;;;4.32;2.83;;;26.40;99.90;;;;;;8266974;28;20276;-68
2023/06/30 15:28:45;;;;;;;6.45;2.80;;;26.30;99.90;;;;;;8264848;28;20219;-67
2023/06/30 15:32:46;;;;;;;4.75;3.20;;;26.20;99.90;;;;;;8269060;28;20183;-68
2023/06/30 15:36:47;;;;;;;4.53;3.50;;;25.90;99.90;;;;;;8267469;28;20183;-68
2023/06/30 15:40:48;;;;;;;3.45;3.10;;;25.40;99.90;;;;;;8269197;28;20187;-67
2023/06/30 15:44:49;;;;;;;4.63;4.00;;;25.00;99.90;;;;;;8269142;28;20290;-68
2023/06/30 15:48:50;;;;;;;5.20;4.03;;;24.70;99.90;;;;;;8267742;28;20231;-68
2023/06/30 15:52:51;;;;;;;5.27;4.30;;;24.40;99.90;;;;;;8265653;28;20241;-68
2023/06/30 15:56:52;;;;;;;5.33;4.90;;;24.50;99.90;;;;;;8263447;28;20183;-68
2023/06/30 16:00:54;;;;;;;5.00;4.60;;;24.40;99.90;;;;;;8268014;28;20197;-68
2023/06/30 16:04:55;;;;;;;4.70;4.30;;;24.30;99.90;;;;;;8271238;28;20219;-67
2023/06/30 16:08:56;;;;;;;5.53;4.63;;;24.60;99.90;;;;;;8267855;28;20211;-68
2023/06/30 16:12:57;;;;;;;5.80;5.20;;;24.70;99.90;;;;;;8263369;28;20234;-67
2023/06/30 16:16:58;;;;;;;7.33;5.33;;;24.90;99.90;;;;;;8269487;28;20282;-68
2023/06/30 16:20:59;;;;;;;7.25;4.57;;;25.00;99.90;;;;;;8273278;28;20191;-67
2023/06/30 16:25:01;;;;;;;6.00;3.80;;;25.20;99.90;;;;;;8272366;28;20198;-67
2023/06/30 16:29:07;;;;;;;3.25;2.92;;;25.30;99.90;;;;;;8277263;28;20179;-67
2023/06/30 16:33:08;;;;;;;6.00;3.60;;;25.40;99.90;;;;;;8270705;28;20188;-69
2023/06/30 16:37:09;;;;;;;5.43;3.95;;;25.50;99.90;;;;;;8272316;28;20188;-67
2023/06/30 16:41:10;;;;;;;3.72;3.35;;;25.50;99.90;;;;;;8266517;28;20187;-67
2023/06/30 16:45:12;;;;;;;5.82;3.63;;;25.40;99.90;;;;;;8268559;28;20200;-68
2023/06/30 16:49:13;;;;;;;5.63;5.10;;;25.30;99.90;;;;;;8272080;28;20241;-68
2023/06/30 16:53:14;;;;;;;5.13;4.63;;;24.90;99.90;;;;;;8285201;28;20195;-67
2023/06/30 16:57:15;;;;;;;5.73;4.70;;;24.40;99.90;;;;;;8271280;28;20242;-67
2023/06/30 17:01:16;;;;;;;6.73;5.20;;;23.80;99.90;;;;;;8267356;28;20199;-69
2023/06/30 17:05:17;;;;;;;5.73;5.10;;;23.50;99.90;;;;;;8274163;28;20369;-68
2023/06/30 17:09:19;;;;;;;6.53;5.23;;;23.30;1.00;;;;;;8272951;28;20210;-68
2023/06/30 17:13:20;;;;;;;5.93;5.43;;;23.20;1.00;;;;;;8272960;28;20179;-67
2023/06/30 17:17:21;;;;;;;8.30;5.63;;;23.00;1.00;;;;;;8267474;28;20202;-67
2023/06/30 17:21:22;;;;;;;6.20;5.27;;;23.00;1.00;;;;;;8279229;28;20183;-68
2023/06/30 17:25:23;;;;;;;8.00;6.47;;;22.80;1.00;;;;;;8267677;28;20212;-67
2023/06/30 17:29:24;;;;;;;13.40;8.20;;;22.60;1.00;;;;;;8272246;28;20214;-67
2023/06/30 17:33:25;;;;;;;6.53;5.93;;;22.40;1.00;;;;;;8272944;28;20183;-67
2023/06/30 17:37:26;;;;;;;6.80;6.13;;;22.20;1.00;;;;;;8277293;28;20192;-67
2023/06/30 17:41:27;;;;;;;7.90;6.50;;;22.10;1.00;;;;;;8269274;28;20253;-67
2023/06/30 17:45:29;;;;;;;10.63;6.63;;;21.90;1.00;;;;;;8269081;28;20253;-66
2023/06/30 17:49:33;;;;;;;6.47;5.90;;;21.70;1.00;;;;;;8265514;28;20218;-67
2023/06/30 17:53:34;;;;;;;7.97;6.03;;;21.70;1.00;;;;;;8274809;28;20183;-66
2023/06/30 17:57:35;;;;;;;8.30;6.40;;;21.60;1.00;;;;;;8271713;28;20278;-65
2023/06/30 18:01:36;;;;;;;7.93;6.20;;;21.50;1.00;;;;;;8266838;28;20187;-67
2023/06/30 18:05:37;;;;;;;7.10;6.50;;;21.50;1.00;;;;;;8267522;28;20324;-68
2023/06/30 18:09:40;;;;;;;7.27;6.67;;;21.40;1.00;;;;;;8269145;28;20210;-68
2023/06/30 18:13:41;;;;;;;8.73;7.20;;;21.20;1.00;;;;;;8265807;28;20184;-67
2023/06/30 18:17:42;;;;;;;8.83;7.20;;;21.10;1.00;;;;;;8276864;28;20195;-66
2023/06/30 18:21:43;;;;;;;9.37;7.27;;;20.90;1.00;;;;;;8270292;28;20199;-69
2023/06/30 18:25:44;;;;;;;11.70;8.60;;;20.70;1.00;;;;;;8268905;28;20270;-67
2023/06/30 18:29:45;;;;;;;16.47;10.87;;;20.50;1.00;;;;;;8266371;28;20184;-67
2023/06/30 18:33:46;;;;;;;9.70;8.70;;;20.30;46.50;;;;;;8273969;28;20184;-70
2023/06/30 18:37:47;;;;;;;9.70;8.60;;;20.20;99.90;;;;;;8269099;28;20277;-69
2023/06/30 18:41:48;;;;;;;10.93;8.83;;;20.00;99.90;;;;;;8267890;28;20194;-67
2023/06/30 18:45:49;;;;;;;9.67;8.77;;;19.90;99.90;;;;;;8267544;28;20203;-68
2023/06/30 18:49:50;;;;;;;10.50;9.17;;;19.80;99.90;;;;;;8270242;28;20198;-70
2023/06/30 18:53:52;;;;;;;10.43;9.40;;;19.80;99.90;;;;;;8269396;28;20171;-68
2023/06/30 18:57:53;;;;;;;10.80;9.70;;;19.70;99.90;;;;;;8271097;28;20197;-67
2023/06/30 19:01:54;;;;;;;11.13;10.03;;;19.50;99.90;;;;;;8274713;28;20183;-69
2023/06/30 19:05:58;;;;;;;11.37;10.17;;;19.40;1.00;;;;;;8266011;28;20282;-68
2023/06/30 19:09:59;;;;;;;12.00;10.80;;;19.30;1.00;;;;;;8269198;28;20194;-67
2023/06/30 19:14:01;;;;;;;12.83;11.43;;;19.30;1.00;;;;;;8265675;28;20187;-70
2023/06/30 19:18:02;;;;;;;12.07;10.87;;;19.20;1.00;;;;;;8267932;28;20190;-67
2023/06/30 19:22:06;;;;;;;13.07;11.77;;;19.10;8.60;;;;;;8266366;28;20197;-67
2023/06/30 19:26:08;;;;;;;12.23;10.97;;;19.10;99.90;;;;;;8266751;28;20218;-68
2023/06/30 19:30:13;;;;;;;11.63;10.50;;;19.00;99.90;;;;;;8268389;28;20283;-69
2023/06/30 19:34:14;;;;;;;12.17;10.93;;;19.00;99.90;;;;;;8269395;28;20266;-68
2023/06/30 19:38:25;;;;;;;12.30;11.03;;;19.00;99.90;;;;;;8267064;28;20194;-68
2023/06/30 19:42:26;;;;;;;12.70;11.33;;;18.90;99.90;;;;;;8270359;28;20298;-68
2023/06/30 19:46:29;;;;;;;12.57;11.27;;;18.80;99.90;;;;;;8268088;28;20207;-69
2023/06/30 19:50:33;;;;;;;13.80;12.03;;;18.80;1.00;;;;;;8274484;28;20186;-66
2023/06/30 19:54:34;;;;;;;12.00;10.80;;;18.70;61.00;;;;;;8279105;28;20187;-68
2023/06/30 19:58:36;;;;;;;11.97;10.73;;;18.70;99.90;;;;;;8280379;28;20298;-69
2023/06/30 20:02:38;;;;;;;11.80;10.60;;;18.60;99.90;;;;;;8279433;28;20188;-68
2023/06/30 20:06:39;;;;;;;13.80;11.27;;;18.60;1.00;;;;;;8281810;28;20211;-69
2023/06/30 20:10:40;;;;;;;12.90;11.40;;;18.50;99.90;;;;;;8279204;28;20274;-72
2023/06/30 20:14:40;;;;;;;13.13;11.77;;;18.40;99.90;;;;;;8281052;28;20179;-71
2023/06/30 20:18:41;;;;;;;12.47;11.17;;;18.30;1.00;;;;;;8282656;28;20190;-73
2023/06/30 20:22:42;;;;;;;14.63;10.90;;;18.20;99.90;;;;;;8293542;28;20191;-69
2023/06/30 20:26:43;;;;;;;13.00;11.70;;;18.10;1.00;;;;;;8282841;28;20202;-69
2023/06/30 20:30:45;;;;;;;11.23;10.13;;;18.00;99.90;;;;;;8279497;28;20183;-69
2023/06/30 20:34:46;;;;;;;12.20;10.70;;;18.00;99.90;;;;;;8279915;28;20248;-70
2023/06/30 20:38:47;;;;;;;10.33;9.30;;;17.90;99.90;;;;;;8275913;28;20191;-72
2023/06/30 20:42:48;;;;;;;11.20;9.53;;;17.90;99.90;;;;;;8281328;28;20203;-68
2023/06/30 20:46:49;;;;;;;9.97;8.97;;;17.90;99.90;;;;;;8278657;28;20226;-70
2023/06/30 20:50:51;;;;;;;10.93;9.83;;;17.90;99.90;;;;;;8279178;28;20190;-71
2023/06/30 20:54:51;;;;;;;12.07;10.27;;;17.90;99.90;;;;;;8283274;28;20217;-70
2023/06/30 20:58:52;;;;;;;12.20;10.90;;;17.90;99.90;;;;;;8281032;28;20191;-70
2023/06/30 21:02:53;;;;;;;12.70;11.37;;;17.80;99.90;;;;;;8292063;28;20203;-70
2023/06/30 21:06:55;;;;;;;12.73;11.43;;;17.80;99.90;;;;;;8275608;28;20322;-69